sensor_id;sensor_type;location;lat;lon;timestamp;P1;durP1;ratioP1;P2;durP2;ratioP2
9048;SDS011;4559;47.252;9.592;2022-12-19T00:01:24;24.70;;;12.57;;
9048;SDS011;4559;47.252;9.592;2022-12-19T00:03:52;25.03;;;11.63;;
9048;SDS011;4559;47.252;9.592;2022-12-19T00:06:19;27.00;;;12.98;;
9048;SDS011;4559;47.252;9.592;2022-12-19T00:08:46;25.35;;;12.85;;
9048;SDS011;4559;47.252;9.592;2022-12-19T00:11:12;28.92;;;13.15;;
9048;SDS011;4559;47.252;9.592;2022-12-19T00:13:39;31.45;;;13.57;;
9048;SDS011;4559;47.252;9.592;2022-12-19T00:16:07;22.23;;;10.93;;
9048;SDS011;4559;47.252;9.592;2022-12-19T00:18:33;21.65;;;11.43;;
9048;SDS011;4559;47.252;9.592;2022-12-19T00:21:02;25.73;;;12.00;;
9048;SDS011;4559;47.252;9.592;2022-12-19T00:23:30;19.70;;;10.43;;
9048;SDS011;4559;47.252;9.592;2022-12-19T00:28:52;26.30;;;12.07;;
9048;SDS011;4559;47.252;9.592;2022-12-19T00:31:19;26.23;;;12.43;;
9048;SDS011;4559;47.252;9.592;2022-12-19T00:33:45;23.65;;;10.90;;
9048;SDS011;4559;47.252;9.592;2022-12-19T00:36:13;23.25;;;11.63;;
9048;SDS011;4559;47.252;9.592;2022-12-19T00:38:39;23.65;;;12.60;;
9048;SDS011;4559;47.252;9.592;2022-12-19T00:41:09;22.23;;;11.30;;
9048;SDS011;4559;47.252;9.592;2022-12-19T00:43:35;22.30;;;11.38;;
9048;SDS011;4559;47.252;9.592;2022-12-19T00:46:03;23.93;;;11.63;;
9048;SDS011;4559;47.252;9.592;2022-12-19T00:48:30;24.02;;;11.77;;
9048;SDS011;4559;47.252;9.592;2022-12-19T00:51:30;26.90;;;12.80;;
9048;SDS011;4559;47.252;9.592;2022-12-19T00:53:49;25.42;;;12.55;;
9048;SDS011;4559;47.252;9.592;2022-12-19T00:56:16;22.60;;;11.43;;
9048;SDS011;4559;47.252;9.592;2022-12-19T00:58:43;23.20;;;11.93;;
9048;SDS011;4559;47.252;9.592;2022-12-19T01:01:13;22.35;;;11.25;;
9048;SDS011;4559;47.252;9.592;2022-12-19T01:03:39;22.38;;;11.75;;
9048;SDS011;4559;47.252;9.592;2022-12-19T01:06:06;22.45;;;11.25;;
9048;SDS011;4559;47.252;9.592;2022-12-19T01:08:32;22.38;;;11.40;;
9048;SDS011;4559;47.252;9.592;2022-12-19T01:10:58;19.95;;;10.73;;
9048;SDS011;4559;47.252;9.592;2022-12-19T01:13:24;24.25;;;10.55;;
9048;SDS011;4559;47.252;9.592;2022-12-19T01:15:51;26.13;;;11.48;;
9048;SDS011;4559;47.252;9.592;2022-12-19T01:18:17;24.17;;;11.87;;
9048;SDS011;4559;47.252;9.592;2022-12-19T01:20:44;21.67;;;10.40;;
9048;SDS011;4559;47.252;9.592;2022-12-19T01:23:14;20.65;;;10.77;;
9048;SDS011;4559;47.252;9.592;2022-12-19T01:25:41;25.98;;;12.20;;
9048;SDS011;4559;47.252;9.592;2022-12-19T01:28:09;25.67;;;11.43;;
9048;SDS011;4559;47.252;9.592;2022-12-19T01:30:37;22.67;;;11.40;;
9048;SDS011;4559;47.252;9.592;2022-12-19T01:33:03;24.53;;;11.57;;
9048;SDS011;4559;47.252;9.592;2022-12-19T01:35:29;24.65;;;11.27;;
9048;SDS011;4559;47.252;9.592;2022-12-19T01:37:55;20.52;;;11.35;;
9048;SDS011;4559;47.252;9.592;2022-12-19T01:40:21;22.67;;;11.05;;
9048;SDS011;4559;47.252;9.592;2022-12-19T01:42:47;20.85;;;11.70;;
9048;SDS011;4559;47.252;9.592;2022-12-19T01:47:47;22.50;;;11.02;;
9048;SDS011;4559;47.252;9.592;2022-12-19T01:50:16;25.23;;;11.70;;
9048;SDS011;4559;47.252;9.592;2022-12-19T01:52:43;22.92;;;11.40;;
9048;SDS011;4559;47.252;9.592;2022-12-19T01:55:10;24.58;;;11.75;;
9048;SDS011;4559;47.252;9.592;2022-12-19T01:57:36;23.33;;;11.40;;
9048;SDS011;4559;47.252;9.592;2022-12-19T02:00:03;22.90;;;12.02;;
9048;SDS011;4559;47.252;9.592;2022-12-19T02:02:34;23.58;;;11.57;;
9048;SDS011;4559;47.252;9.592;2022-12-19T02:05:02;27.33;;;12.13;;
9048;SDS011;4559;47.252;9.592;2022-12-19T02:07:28;22.17;;;10.57;;
9048;SDS011;4559;47.252;9.592;2022-12-19T02:09:55;23.85;;;10.93;;
9048;SDS011;4559;47.252;9.592;2022-12-19T02:12:22;20.42;;;11.57;;
9048;SDS011;4559;47.252;9.592;2022-12-19T02:14:49;20.63;;;11.13;;
9048;SDS011;4559;47.252;9.592;2022-12-19T02:17:17;23.10;;;11.63;;
9048;SDS011;4559;47.252;9.592;2022-12-19T02:19:52;22.10;;;10.73;;
9048;SDS011;4559;47.252;9.592;2022-12-19T02:27:44;21.60;;;10.88;;
9048;SDS011;4559;47.252;9.592;2022-12-19T02:33:02;26.90;;;12.77;;
9048;SDS011;4559;47.252;9.592;2022-12-19T02:38:11;22.02;;;11.88;;
9048;SDS011;4559;47.252;9.592;2022-12-19T02:40:41;20.50;;;11.05;;
9048;SDS011;4559;47.252;9.592;2022-12-19T02:43:09;25.02;;;11.50;;
9048;SDS011;4559;47.252;9.592;2022-12-19T02:45:37;26.43;;;12.80;;
9048;SDS011;4559;47.252;9.592;2022-12-19T02:48:04;27.10;;;12.50;;
9048;SDS011;4559;47.252;9.592;2022-12-19T02:50:49;24.40;;;12.20;;
9048;SDS011;4559;47.252;9.592;2022-12-19T02:53:17;24.27;;;10.95;;
9048;SDS011;4559;47.252;9.592;2022-12-19T03:06:20;19.00;;;9.95;;
9048;SDS011;4559;47.252;9.592;2022-12-19T03:08:58;19.98;;;10.43;;
9048;SDS011;4559;47.252;9.592;2022-12-19T03:11:27;23.52;;;10.75;;
9048;SDS011;4559;47.252;9.592;2022-12-19T03:13:56;19.88;;;10.35;;
9048;SDS011;4559;47.252;9.592;2022-12-19T03:16:22;22.60;;;10.73;;
9048;SDS011;4559;47.252;9.592;2022-12-19T03:18:49;21.05;;;10.55;;
9048;SDS011;4559;47.252;9.592;2022-12-19T03:21:24;19.50;;;10.55;;
9048;SDS011;4559;47.252;9.592;2022-12-19T03:23:51;24.50;;;11.65;;
9048;SDS011;4559;47.252;9.592;2022-12-19T03:26:19;19.30;;;9.90;;
9048;SDS011;4559;47.252;9.592;2022-12-19T03:31:15;19.60;;;10.27;;
9048;SDS011;4559;47.252;9.592;2022-12-19T03:33:42;15.98;;;9.57;;
9048;SDS011;4559;47.252;9.592;2022-12-19T03:36:11;18.42;;;9.40;;
9048;SDS011;4559;47.252;9.592;2022-12-19T03:38:38;19.70;;;10.60;;
9048;SDS011;4559;47.252;9.592;2022-12-19T03:41:05;18.30;;;9.25;;
9048;SDS011;4559;47.252;9.592;2022-12-19T03:43:32;14.65;;;8.07;;
9048;SDS011;4559;47.252;9.592;2022-12-19T03:53:40;19.63;;;10.05;;
9048;SDS011;4559;47.252;9.592;2022-12-19T03:56:23;24.00;;;11.88;;
9048;SDS011;4559;47.252;9.592;2022-12-19T03:58:51;21.20;;;10.13;;
9048;SDS011;4559;47.252;9.592;2022-12-19T04:01:19;21.33;;;11.13;;
9048;SDS011;4559;47.252;9.592;2022-12-19T04:03:46;23.98;;;11.23;;
9048;SDS011;4559;47.252;9.592;2022-12-19T04:06:12;21.45;;;11.05;;
9048;SDS011;4559;47.252;9.592;2022-12-19T04:08:38;23.67;;;11.32;;
9048;SDS011;4559;47.252;9.592;2022-12-19T04:11:06;21.60;;;10.57;;
9048;SDS011;4559;47.252;9.592;2022-12-19T04:13:40;25.50;;;12.70;;
9048;SDS011;4559;47.252;9.592;2022-12-19T04:16:11;21.60;;;11.10;;
9048;SDS011;4559;47.252;9.592;2022-12-19T04:18:40;23.63;;;10.85;;
9048;SDS011;4559;47.252;9.592;2022-12-19T04:21:24;24.17;;;10.80;;
9048;SDS011;4559;47.252;9.592;2022-12-19T04:23:54;23.15;;;11.40;;
9048;SDS011;4559;47.252;9.592;2022-12-19T04:26:21;19.33;;;10.65;;
9048;SDS011;4559;47.252;9.592;2022-12-19T04:28:49;22.77;;;11.32;;
9048;SDS011;4559;47.252;9.592;2022-12-19T04:31:15;20.48;;;10.43;;
9048;SDS011;4559;47.252;9.592;2022-12-19T04:33:42;18.47;;;9.90;;
9048;SDS011;4559;47.252;9.592;2022-12-19T04:36:08;23.67;;;11.98;;
9048;SDS011;4559;47.252;9.592;2022-12-19T04:38:35;24.95;;;11.80;;
9048;SDS011;4559;47.252;9.592;2022-12-19T04:41:01;19.65;;;10.27;;
9048;SDS011;4559;47.252;9.592;2022-12-19T04:43:27;21.35;;;10.93;;
9048;SDS011;4559;47.252;9.592;2022-12-19T04:45:53;19.38;;;10.63;;
9048;SDS011;4559;47.252;9.592;2022-12-19T04:48:19;19.63;;;11.07;;
9048;SDS011;4559;47.252;9.592;2022-12-19T04:50:44;21.48;;;11.30;;
9048;SDS011;4559;47.252;9.592;2022-12-19T04:53:10;21.63;;;10.40;;
9048;SDS011;4559;47.252;9.592;2022-12-19T04:55:36;21.58;;;11.85;;
9048;SDS011;4559;47.252;9.592;2022-12-19T04:58:04;21.20;;;11.57;;
9048;SDS011;4559;47.252;9.592;2022-12-19T05:00:30;21.15;;;10.35;;
9048;SDS011;4559;47.252;9.592;2022-12-19T05:02:56;21.30;;;10.38;;
9048;SDS011;4559;47.252;9.592;2022-12-19T05:05:22;22.67;;;10.80;;
9048;SDS011;4559;47.252;9.592;2022-12-19T05:07:48;25.15;;;11.50;;
9048;SDS011;4559;47.252;9.592;2022-12-19T05:10:15;19.73;;;11.05;;
9048;SDS011;4559;47.252;9.592;2022-12-19T05:12:41;20.85;;;11.45;;
9048;SDS011;4559;47.252;9.592;2022-12-19T05:15:07;21.10;;;10.38;;
9048;SDS011;4559;47.252;9.592;2022-12-19T05:17:33;21.40;;;11.10;;
9048;SDS011;4559;47.252;9.592;2022-12-19T05:19:59;24.90;;;11.30;;
9048;SDS011;4559;47.252;9.592;2022-12-19T05:22:26;23.13;;;10.85;;
9048;SDS011;4559;47.252;9.592;2022-12-19T05:24:52;19.40;;;10.43;;
9048;SDS011;4559;47.252;9.592;2022-12-19T05:27:17;21.27;;;11.13;;
9048;SDS011;4559;47.252;9.592;2022-12-19T05:29:43;22.65;;;9.93;;
9048;SDS011;4559;47.252;9.592;2022-12-19T05:32:09;25.20;;;11.47;;
9048;SDS011;4559;47.252;9.592;2022-12-19T05:34:35;18.50;;;10.18;;
9048;SDS011;4559;47.252;9.592;2022-12-19T05:37:01;20.13;;;11.93;;
9048;SDS011;4559;47.252;9.592;2022-12-19T05:39:28;22.75;;;9.45;;
9048;SDS011;4559;47.252;9.592;2022-12-19T05:41:54;20.92;;;10.30;;
9048;SDS011;4559;47.252;9.592;2022-12-19T05:44:20;24.40;;;10.95;;
9048;SDS011;4559;47.252;9.592;2022-12-19T05:46:46;17.67;;;10.25;;
9048;SDS011;4559;47.252;9.592;2022-12-19T05:49:12;16.88;;;10.18;;
9048;SDS011;4559;47.252;9.592;2022-12-19T05:51:38;16.30;;;8.55;;
9048;SDS011;4559;47.252;9.592;2022-12-19T05:54:04;21.83;;;10.43;;
9048;SDS011;4559;47.252;9.592;2022-12-19T05:56:30;20.92;;;10.90;;
9048;SDS011;4559;47.252;9.592;2022-12-19T05:58:56;18.42;;;8.93;;
9048;SDS011;4559;47.252;9.592;2022-12-19T06:01:25;15.48;;;9.20;;
9048;SDS011;4559;47.252;9.592;2022-12-19T06:03:52;16.05;;;8.73;;
9048;SDS011;4559;47.252;9.592;2022-12-19T06:06:19;17.83;;;8.35;;
9048;SDS011;4559;47.252;9.592;2022-12-19T06:08:46;19.85;;;9.27;;
9048;SDS011;4559;47.252;9.592;2022-12-19T06:11:13;16.17;;;8.80;;
9048;SDS011;4559;47.252;9.592;2022-12-19T06:13:39;21.52;;;9.82;;
9048;SDS011;4559;47.252;9.592;2022-12-19T06:16:06;18.77;;;9.95;;
9048;SDS011;4559;47.252;9.592;2022-12-19T06:18:33;18.50;;;9.65;;
9048;SDS011;4559;47.252;9.592;2022-12-19T06:21:00;16.45;;;8.75;;
9048;SDS011;4559;47.252;9.592;2022-12-19T06:23:29;21.88;;;10.98;;
9048;SDS011;4559;47.252;9.592;2022-12-19T06:25:56;19.52;;;9.43;;
9048;SDS011;4559;47.252;9.592;2022-12-19T06:28:22;20.58;;;10.93;;
9048;SDS011;4559;47.252;9.592;2022-12-19T06:30:48;20.90;;;10.48;;
9048;SDS011;4559;47.252;9.592;2022-12-19T06:33:14;19.15;;;10.40;;
9048;SDS011;4559;47.252;9.592;2022-12-19T06:35:40;21.85;;;10.70;;
9048;SDS011;4559;47.252;9.592;2022-12-19T06:38:06;19.42;;;10.57;;
9048;SDS011;4559;47.252;9.592;2022-12-19T06:40:32;19.10;;;10.30;;
9048;SDS011;4559;47.252;9.592;2022-12-19T06:43:17;17.80;;;10.48;;
9048;SDS011;4559;47.252;9.592;2022-12-19T06:45:43;17.58;;;9.95;;
9048;SDS011;4559;47.252;9.592;2022-12-19T06:48:09;15.43;;;9.30;;
9048;SDS011;4559;47.252;9.592;2022-12-19T06:50:35;19.33;;;9.00;;
9048;SDS011;4559;47.252;9.592;2022-12-19T06:53:01;17.40;;;9.35;;
9048;SDS011;4559;47.252;9.592;2022-12-19T06:55:27;13.02;;;7.32;;
9048;SDS011;4559;47.252;9.592;2022-12-19T06:57:53;14.20;;;8.05;;
9048;SDS011;4559;47.252;9.592;2022-12-19T07:00:19;13.32;;;7.45;;
9048;SDS011;4559;47.252;9.592;2022-12-19T07:02:46;9.93;;;6.43;;
9048;SDS011;4559;47.252;9.592;2022-12-19T07:05:14;19.25;;;9.23;;
9048;SDS011;4559;47.252;9.592;2022-12-19T07:07:40;13.90;;;6.97;;
9048;SDS011;4559;47.252;9.592;2022-12-19T07:10:07;8.05;;;4.85;;
9048;SDS011;4559;47.252;9.592;2022-12-19T07:12:33;4.47;;;4.07;;
9048;SDS011;4559;47.252;9.592;2022-12-19T07:14:59;7.40;;;4.60;;
9048;SDS011;4559;47.252;9.592;2022-12-19T07:17:25;12.18;;;7.28;;
9048;SDS011;4559;47.252;9.592;2022-12-19T07:19:53;14.38;;;9.77;;
9048;SDS011;4559;47.252;9.592;2022-12-19T07:22:20;16.70;;;9.38;;
9048;SDS011;4559;47.252;9.592;2022-12-19T07:24:46;21.88;;;11.93;;
9048;SDS011;4559;47.252;9.592;2022-12-19T07:27:12;24.40;;;11.60;;
9048;SDS011;4559;47.252;9.592;2022-12-19T07:29:38;30.00;;;14.18;;
9048;SDS011;4559;47.252;9.592;2022-12-19T07:32:04;20.97;;;12.03;;
9048;SDS011;4559;47.252;9.592;2022-12-19T07:34:30;21.98;;;11.75;;
9048;SDS011;4559;47.252;9.592;2022-12-19T07:36:56;23.05;;;11.55;;
9048;SDS011;4559;47.252;9.592;2022-12-19T07:39:22;18.80;;;11.57;;
9048;SDS011;4559;47.252;9.592;2022-12-19T07:41:48;23.35;;;12.00;;
9048;SDS011;4559;47.252;9.592;2022-12-19T07:44:14;25.77;;;11.77;;
9048;SDS011;4559;47.252;9.592;2022-12-19T07:46:41;24.30;;;12.02;;
9048;SDS011;4559;47.252;9.592;2022-12-19T07:49:07;22.23;;;10.32;;
9048;SDS011;4559;47.252;9.592;2022-12-19T07:51:33;45.78;;;21.17;;
9048;SDS011;4559;47.252;9.592;2022-12-19T07:53:59;25.87;;;12.63;;
9048;SDS011;4559;47.252;9.592;2022-12-19T07:56:25;21.88;;;10.52;;
9048;SDS011;4559;47.252;9.592;2022-12-19T07:58:51;20.48;;;11.43;;
9048;SDS011;4559;47.252;9.592;2022-12-19T08:01:17;18.67;;;10.90;;
9048;SDS011;4559;47.252;9.592;2022-12-19T08:03:43;22.35;;;10.13;;
9048;SDS011;4559;47.252;9.592;2022-12-19T08:06:09;19.00;;;9.97;;
9048;SDS011;4559;47.252;9.592;2022-12-19T08:08:35;21.33;;;10.57;;
9048;SDS011;4559;47.252;9.592;2022-12-19T08:11:20;18.20;;;9.90;;
9048;SDS011;4559;47.252;9.592;2022-12-19T08:13:50;22.50;;;9.90;;
9048;SDS011;4559;47.252;9.592;2022-12-19T08:16:16;19.63;;;9.85;;
9048;SDS011;4559;47.252;9.592;2022-12-19T08:18:42;20.95;;;10.02;;
9048;SDS011;4559;47.252;9.592;2022-12-19T08:21:09;18.05;;;9.95;;
9048;SDS011;4559;47.252;9.592;2022-12-19T08:23:35;17.77;;;9.63;;
9048;SDS011;4559;47.252;9.592;2022-12-19T08:26:07;17.52;;;10.48;;
9048;SDS011;4559;47.252;9.592;2022-12-19T08:28:33;21.40;;;11.93;;
9048;SDS011;4559;47.252;9.592;2022-12-19T08:31:14;28.20;;;14.10;;
9048;SDS011;4559;47.252;9.592;2022-12-19T08:33:40;36.97;;;18.38;;
9048;SDS011;4559;47.252;9.592;2022-12-19T08:36:07;23.15;;;12.32;;
9048;SDS011;4559;47.252;9.592;2022-12-19T08:38:34;20.08;;;11.63;;
9048;SDS011;4559;47.252;9.592;2022-12-19T08:41:00;21.20;;;12.15;;
9048;SDS011;4559;47.252;9.592;2022-12-19T08:43:26;23.75;;;11.30;;
9048;SDS011;4559;47.252;9.592;2022-12-19T08:45:52;21.90;;;11.80;;
9048;SDS011;4559;47.252;9.592;2022-12-19T08:48:18;20.77;;;12.10;;
9048;SDS011;4559;47.252;9.592;2022-12-19T08:50:51;20.88;;;12.07;;
9048;SDS011;4559;47.252;9.592;2022-12-19T08:53:17;20.05;;;11.02;;
9048;SDS011;4559;47.252;9.592;2022-12-19T08:55:43;16.40;;;9.68;;
9048;SDS011;4559;47.252;9.592;2022-12-19T08:58:09;19.33;;;11.18;;
9048;SDS011;4559;47.252;9.592;2022-12-19T09:00:36;23.27;;;12.13;;
9048;SDS011;4559;47.252;9.592;2022-12-19T09:03:02;22.17;;;12.27;;
9048;SDS011;4559;47.252;9.592;2022-12-19T09:05:28;22.42;;;11.60;;
9048;SDS011;4559;47.252;9.592;2022-12-19T09:07:54;21.98;;;11.38;;
9048;SDS011;4559;47.252;9.592;2022-12-19T09:10:19;19.02;;;11.40;;
9048;SDS011;4559;47.252;9.592;2022-12-19T09:12:45;19.40;;;10.98;;
9048;SDS011;4559;47.252;9.592;2022-12-19T09:15:11;20.85;;;11.48;;
9048;SDS011;4559;47.252;9.592;2022-12-19T09:17:37;18.85;;;11.00;;
9048;SDS011;4559;47.252;9.592;2022-12-19T09:20:04;20.38;;;12.07;;
9048;SDS011;4559;47.252;9.592;2022-12-19T09:22:30;23.67;;;12.53;;
9048;SDS011;4559;47.252;9.592;2022-12-19T09:24:56;20.35;;;11.43;;
9048;SDS011;4559;47.252;9.592;2022-12-19T09:27:22;23.08;;;13.05;;
9048;SDS011;4559;47.252;9.592;2022-12-19T09:29:48;21.67;;;12.48;;
9048;SDS011;4559;47.252;9.592;2022-12-19T09:32:14;22.70;;;13.75;;
9048;SDS011;4559;47.252;9.592;2022-12-19T09:34:40;22.20;;;14.23;;
9048;SDS011;4559;47.252;9.592;2022-12-19T09:37:06;25.55;;;15.25;;
9048;SDS011;4559;47.252;9.592;2022-12-19T09:39:33;27.92;;;15.20;;
9048;SDS011;4559;47.252;9.592;2022-12-19T09:47:09;24.35;;;14.65;;
9048;SDS011;4559;47.252;9.592;2022-12-19T09:49:38;24.90;;;14.60;;
9048;SDS011;4559;47.252;9.592;2022-12-19T09:54:44;31.00;;;15.27;;
9048;SDS011;4559;47.252;9.592;2022-12-19T09:57:35;23.27;;;13.10;;
9048;SDS011;4559;47.252;9.592;2022-12-19T10:00:05;24.10;;;13.20;;
9048;SDS011;4559;47.252;9.592;2022-12-19T10:05:01;27.95;;;16.63;;
9048;SDS011;4559;47.252;9.592;2022-12-19T10:07:28;29.88;;;14.98;;
9048;SDS011;4559;47.252;9.592;2022-12-19T10:09:54;24.95;;;13.80;;
9048;SDS011;4559;47.252;9.592;2022-12-19T10:12:25;24.83;;;13.88;;
9048;SDS011;4559;47.252;9.592;2022-12-19T10:22:38;18.70;;;11.98;;
9048;SDS011;4559;47.252;9.592;2022-12-19T10:27:43;20.80;;;11.95;;
9048;SDS011;4559;47.252;9.592;2022-12-19T10:30:13;25.48;;;12.85;;
9048;SDS011;4559;47.252;9.592;2022-12-19T10:32:54;23.85;;;13.70;;
9048;SDS011;4559;47.252;9.592;2022-12-19T10:35:21;21.27;;;11.68;;
9048;SDS011;4559;47.252;9.592;2022-12-19T10:37:54;20.15;;;11.18;;
9048;SDS011;4559;47.252;9.592;2022-12-19T10:40:29;22.60;;;11.80;;
9048;SDS011;4559;47.252;9.592;2022-12-19T10:43:16;19.50;;;11.30;;
9048;SDS011;4559;47.252;9.592;2022-12-19T10:45:47;22.27;;;11.75;;
9048;SDS011;4559;47.252;9.592;2022-12-19T10:48:15;15.27;;;9.98;;
9048;SDS011;4559;47.252;9.592;2022-12-19T10:50:42;22.38;;;10.75;;
9048;SDS011;4559;47.252;9.592;2022-12-19T10:53:09;20.15;;;10.85;;
9048;SDS011;4559;47.252;9.592;2022-12-19T11:00:57;17.52;;;10.38;;
9048;SDS011;4559;47.252;9.592;2022-12-19T11:03:24;22.43;;;10.90;;
9048;SDS011;4559;47.252;9.592;2022-12-19T11:05:51;16.40;;;9.95;;
9048;SDS011;4559;47.252;9.592;2022-12-19T11:08:18;14.98;;;9.50;;
9048;SDS011;4559;47.252;9.592;2022-12-19T11:10:48;15.07;;;9.32;;
9048;SDS011;4559;47.252;9.592;2022-12-19T11:13:22;16.92;;;9.15;;
9048;SDS011;4559;47.252;9.592;2022-12-19T11:15:52;16.13;;;9.15;;
9048;SDS011;4559;47.252;9.592;2022-12-19T11:18:19;17.55;;;9.45;;
9048;SDS011;4559;47.252;9.592;2022-12-19T11:21:01;14.40;;;8.88;;
9048;SDS011;4559;47.252;9.592;2022-12-19T11:23:29;15.73;;;8.85;;
9048;SDS011;4559;47.252;9.592;2022-12-19T11:25:59;16.42;;;9.45;;
9048;SDS011;4559;47.252;9.592;2022-12-19T11:28:34;15.80;;;8.83;;
9048;SDS011;4559;47.252;9.592;2022-12-19T11:31:01;16.73;;;9.20;;
9048;SDS011;4559;47.252;9.592;2022-12-19T11:33:28;43.28;;;23.65;;
9048;SDS011;4559;47.252;9.592;2022-12-19T11:35:55;29.52;;;14.80;;
9048;SDS011;4559;47.252;9.592;2022-12-19T11:41:12;16.50;;;9.07;;
9048;SDS011;4559;47.252;9.592;2022-12-19T11:43:42;13.90;;;8.98;;
9048;SDS011;4559;47.252;9.592;2022-12-19T11:48:37;17.40;;;9.55;;
9048;SDS011;4559;47.252;9.592;2022-12-19T11:51:19;19.30;;;9.98;;
9048;SDS011;4559;47.252;9.592;2022-12-19T11:53:50;15.80;;;9.60;;
9048;SDS011;4559;47.252;9.592;2022-12-19T11:56:18;16.83;;;10.02;;
9048;SDS011;4559;47.252;9.592;2022-12-19T11:58:47;16.83;;;9.63;;
9048;SDS011;4559;47.252;9.592;2022-12-19T12:06:12;15.05;;;8.80;;
9048;SDS011;4559;47.252;9.592;2022-12-19T12:14:08;15.93;;;9.30;;
9048;SDS011;4559;47.252;9.592;2022-12-19T12:19:35;25.88;;;10.85;;
9048;SDS011;4559;47.252;9.592;2022-12-19T12:25:09;16.83;;;10.18;;
9048;SDS011;4559;47.252;9.592;2022-12-19T12:27:54;18.23;;;11.35;;
9048;SDS011;4559;47.252;9.592;2022-12-19T12:30:25;17.15;;;10.75;;
9048;SDS011;4559;47.252;9.592;2022-12-19T12:33:17;18.35;;;10.57;;
9048;SDS011;4559;47.252;9.592;2022-12-19T12:35:50;15.10;;;10.15;;
9048;SDS011;4559;47.252;9.592;2022-12-19T12:43:59;18.30;;;10.93;;
9048;SDS011;4559;47.252;9.592;2022-12-19T12:46:48;19.02;;;11.05;;
9048;SDS011;4559;47.252;9.592;2022-12-19T12:51:59;18.15;;;10.30;;
9048;SDS011;4559;47.252;9.592;2022-12-19T12:54:36;17.35;;;10.00;;
9048;SDS011;4559;47.252;9.592;2022-12-19T12:57:02;14.73;;;9.00;;
9048;SDS011;4559;47.252;9.592;2022-12-19T12:59:29;19.10;;;10.88;;
9048;SDS011;4559;47.252;9.592;2022-12-19T13:01:59;16.92;;;9.68;;
9048;SDS011;4559;47.252;9.592;2022-12-19T13:04:32;14.75;;;9.80;;
9048;SDS011;4559;47.252;9.592;2022-12-19T13:07:01;20.35;;;10.25;;
9048;SDS011;4559;47.252;9.592;2022-12-19T13:09:28;18.08;;;10.40;;
9048;SDS011;4559;47.252;9.592;2022-12-19T13:17:59;18.08;;;10.10;;
9048;SDS011;4559;47.252;9.592;2022-12-19T13:30:28;19.90;;;10.85;;
9048;SDS011;4559;47.252;9.592;2022-12-19T13:35:31;17.05;;;10.23;;
9048;SDS011;4559;47.252;9.592;2022-12-19T13:40:57;16.45;;;10.77;;
9048;SDS011;4559;47.252;9.592;2022-12-19T13:43:28;16.92;;;9.30;;
9048;SDS011;4559;47.252;9.592;2022-12-19T13:48:54;17.15;;;8.68;;
9048;SDS011;4559;47.252;9.592;2022-12-19T13:51:21;16.25;;;8.98;;
9048;SDS011;4559;47.252;9.592;2022-12-19T13:53:50;18.23;;;9.60;;
9048;SDS011;4559;47.252;9.592;2022-12-19T13:56:17;13.05;;;8.70;;
9048;SDS011;4559;47.252;9.592;2022-12-19T14:01:13;14.70;;;8.57;;
9048;SDS011;4559;47.252;9.592;2022-12-19T14:03:41;11.00;;;7.60;;
9048;SDS011;4559;47.252;9.592;2022-12-19T14:06:09;19.70;;;9.10;;
9048;SDS011;4559;47.252;9.592;2022-12-19T14:08:35;20.90;;;11.45;;
9048;SDS011;4559;47.252;9.592;2022-12-19T14:11:02;18.88;;;9.85;;
9048;SDS011;4559;47.252;9.592;2022-12-19T14:13:32;20.88;;;11.55;;
9048;SDS011;4559;47.252;9.592;2022-12-19T14:16:18;21.83;;;12.25;;
9048;SDS011;4559;47.252;9.592;2022-12-19T14:18:48;20.45;;;10.82;;
9048;SDS011;4559;47.252;9.592;2022-12-19T14:21:16;20.17;;;9.68;;
9048;SDS011;4559;47.252;9.592;2022-12-19T14:23:43;16.58;;;9.23;;
9048;SDS011;4559;47.252;9.592;2022-12-19T14:26:13;12.25;;;7.82;;
9048;SDS011;4559;47.252;9.592;2022-12-19T14:28:46;11.52;;;7.22;;
9048;SDS011;4559;47.252;9.592;2022-12-19T14:31:14;51.25;;;25.23;;
9048;SDS011;4559;47.252;9.592;2022-12-19T14:33:42;53.40;;;26.42;;
9048;SDS011;4559;47.252;9.592;2022-12-19T14:36:10;18.58;;;10.63;;
9048;SDS011;4559;47.252;9.592;2022-12-19T14:38:36;12.55;;;8.15;;
9048;SDS011;4559;47.252;9.592;2022-12-19T14:41:03;9.70;;;6.65;;
9048;SDS011;4559;47.252;9.592;2022-12-19T14:43:29;9.52;;;6.50;;
9048;SDS011;4559;47.252;9.592;2022-12-19T14:51:12;10.57;;;6.37;;
9048;SDS011;4559;47.252;9.592;2022-12-19T14:53:39;10.75;;;7.20;;
9048;SDS011;4559;47.252;9.592;2022-12-19T14:56:07;12.60;;;8.52;;
9048;SDS011;4559;47.252;9.592;2022-12-19T14:58:35;12.00;;;7.40;;
9048;SDS011;4559;47.252;9.592;2022-12-19T15:01:02;11.95;;;7.97;;
9048;SDS011;4559;47.252;9.592;2022-12-19T15:03:30;13.20;;;7.40;;
9048;SDS011;4559;47.252;9.592;2022-12-19T15:06:15;12.32;;;8.82;;
9048;SDS011;4559;47.252;9.592;2022-12-19T15:08:42;19.83;;;10.23;;
9048;SDS011;4559;47.252;9.592;2022-12-19T15:11:23;17.27;;;9.90;;
9048;SDS011;4559;47.252;9.592;2022-12-19T15:14:08;22.02;;;12.82;;
9048;SDS011;4559;47.252;9.592;2022-12-19T15:16:35;20.35;;;11.18;;
9048;SDS011;4559;47.252;9.592;2022-12-19T15:19:01;21.90;;;11.70;;
9048;SDS011;4559;47.252;9.592;2022-12-19T15:21:29;20.17;;;11.55;;
9048;SDS011;4559;47.252;9.592;2022-12-19T15:23:55;18.97;;;10.27;;
9048;SDS011;4559;47.252;9.592;2022-12-19T15:26:54;16.88;;;10.05;;
9048;SDS011;4559;47.252;9.592;2022-12-19T15:29:13;15.98;;;10.60;;
9048;SDS011;4559;47.252;9.592;2022-12-19T15:31:40;20.92;;;10.93;;
9048;SDS011;4559;47.252;9.592;2022-12-19T15:34:20;17.37;;;11.20;;
9048;SDS011;4559;47.252;9.592;2022-12-19T15:36:47;20.40;;;11.77;;
9048;SDS011;4559;47.252;9.592;2022-12-19T15:39:13;21.27;;;13.30;;
9048;SDS011;4559;47.252;9.592;2022-12-19T15:41:39;26.33;;;14.88;;
9048;SDS011;4559;47.252;9.592;2022-12-19T15:44:07;23.77;;;14.18;;
9048;SDS011;4559;47.252;9.592;2022-12-19T15:46:34;26.30;;;12.77;;
9048;SDS011;4559;47.252;9.592;2022-12-19T15:49:00;21.20;;;13.35;;
9048;SDS011;4559;47.252;9.592;2022-12-19T15:51:26;23.65;;;11.82;;
9048;SDS011;4559;47.252;9.592;2022-12-19T15:53:52;19.23;;;11.43;;
9048;SDS011;4559;47.252;9.592;2022-12-19T15:56:28;30.77;;;16.60;;
9048;SDS011;4559;47.252;9.592;2022-12-19T15:58:56;18.98;;;9.82;;
9048;SDS011;4559;47.252;9.592;2022-12-19T16:01:23;20.85;;;10.80;;
9048;SDS011;4559;47.252;9.592;2022-12-19T16:03:50;15.13;;;7.70;;
9048;SDS011;4559;47.252;9.592;2022-12-19T16:06:16;14.77;;;8.75;;
9048;SDS011;4559;47.252;9.592;2022-12-19T16:08:42;12.18;;;7.75;;
9048;SDS011;4559;47.252;9.592;2022-12-19T16:11:15;13.55;;;7.53;;
9048;SDS011;4559;47.252;9.592;2022-12-19T16:13:42;19.38;;;9.18;;
9048;SDS011;4559;47.252;9.592;2022-12-19T16:16:09;14.03;;;8.63;;
9048;SDS011;4559;47.252;9.592;2022-12-19T16:18:35;14.32;;;7.50;;
9048;SDS011;4559;47.252;9.592;2022-12-19T16:21:01;14.20;;;9.60;;
9048;SDS011;4559;47.252;9.592;2022-12-19T16:23:27;14.43;;;9.53;;
9048;SDS011;4559;47.252;9.592;2022-12-19T16:25:53;18.25;;;9.38;;
9048;SDS011;4559;47.252;9.592;2022-12-19T16:28:27;14.13;;;8.95;;
9048;SDS011;4559;47.252;9.592;2022-12-19T16:30:54;14.98;;;9.95;;
9048;SDS011;4559;47.252;9.592;2022-12-19T16:33:22;15.55;;;8.27;;
9048;SDS011;4559;47.252;9.592;2022-12-19T16:35:49;11.05;;;7.40;;
9048;SDS011;4559;47.252;9.592;2022-12-19T16:38:15;14.00;;;7.40;;
9048;SDS011;4559;47.252;9.592;2022-12-19T16:40:42;12.32;;;7.65;;
9048;SDS011;4559;47.252;9.592;2022-12-19T16:43:12;11.25;;;7.43;;
9048;SDS011;4559;47.252;9.592;2022-12-19T16:45:39;12.63;;;7.47;;
9048;SDS011;4559;47.252;9.592;2022-12-19T16:48:19;15.82;;;7.03;;
9048;SDS011;4559;47.252;9.592;2022-12-19T16:50:45;11.07;;;6.85;;
9048;SDS011;4559;47.252;9.592;2022-12-19T16:53:11;10.13;;;6.65;;
9048;SDS011;4559;47.252;9.592;2022-12-19T16:55:37;12.77;;;6.75;;
9048;SDS011;4559;47.252;9.592;2022-12-19T16:58:03;8.45;;;5.93;;
9048;SDS011;4559;47.252;9.592;2022-12-19T17:00:30;9.10;;;5.50;;
9048;SDS011;4559;47.252;9.592;2022-12-19T17:02:57;9.07;;;6.33;;
9048;SDS011;4559;47.252;9.592;2022-12-19T17:05:26;11.02;;;6.30;;